Time;durP1;ratioP1;P1;durP2;ratioP2;P2;SDS_P1;SDS_P2;PMS_P1;PMS_P2;Temp;Humidity;BMP_temperature;BMP_pressure;BME280_temperature;BME280_humidity;BME280_pressure;Samples;Min_cycle;Max_cycle;Signal;HPM_P1;HPM_P2
2021/01/27 00:01:29;;;;;;;14.67;11.57;;;4.00;99.90;;;;;;5028929;28;20724;-64
2021/01/27 00:04:16;;;;;;;11.37;10.23;;;3.90;99.90;;;;;;5023857;28;20653;-63
2021/01/27 00:07:01;;;;;;;13.80;11.60;;;4.00;99.90;;;;;;5023207;28;20940;-64
2021/01/27 00:09:48;;;;;;;14.50;11.00;;;4.00;99.90;;;;;;5030151;28;20610;-63
2021/01/27 00:12:34;;;;;;;12.87;11.10;;;4.00;99.90;;;;;;5029712;28;21017;-64
2021/01/27 00:15:22;;;;;;;12.97;11.50;;;4.00;99.90;;;;;;5019951;28;20680;-64
2021/01/27 00:18:09;;;;;;;13.90;12.40;;;4.00;99.90;;;;;;5027572;28;20582;-64
2021/01/27 00:20:55;;;;;;;14.60;13.07;;;4.00;99.90;;;;;;5023474;28;20591;-64
2021/01/27 00:23:42;;;;;;;13.33;11.83;;;4.00;99.90;;;;;;5010509;28;20717;-65
2021/01/27 00:26:27;;;;;;;16.73;12.50;;;3.90;99.90;;;;;;5030432;28;20615;-64
2021/01/27 00:29:11;;;;;;;14.10;12.47;;;3.90;99.90;;;;;;5028244;28;20607;-64
2021/01/27 00:31:56;;;;;;;14.20;11.90;;;4.00;99.90;;;;;;5015542;28;20728;-63
2021/01/27 00:34:40;;;;;;;16.00;12.40;;;3.90;99.90;;;;;;5026970;28;20641;-64
2021/01/27 00:37:25;;;;;;;15.60;12.73;;;3.90;99.90;;;;;;5020458;28;21061;-64
2021/01/27 00:40:12;;;;;;;13.30;11.73;;;3.90;99.90;;;;;;5030598;28;20630;-65
2021/01/27 00:42:59;;;;;;;14.93;12.73;;;3.90;99.90;;;;;;5026878;28;20639;-64
2021/01/27 00:45:44;;;;;;;16.47;12.93;;;3.90;99.90;;;;;;5027146;28;20646;-64
2021/01/27 00:48:29;;;;;;;17.10;13.27;;;3.90;99.90;;;;;;5027010;28;20615;-63
2021/01/27 00:51:13;;;;;;;16.63;12.93;;;3.80;99.90;;;;;;5026848;28;20646;-64
2021/01/27 00:53:59;;;;;;;13.93;12.50;;;3.90;99.90;;;;;;5026682;28;21395;-64
2021/01/27 00:56:43;;;;;;;17.07;13.80;;;3.80;99.90;;;;;;5026496;28;20646;-64
2021/01/27 00:59:28;;;;;;;17.30;13.83;;;3.90;99.90;;;;;;5028815;28;21635;-64
2021/01/27 01:02:12;;;;;;;17.53;13.87;;;3.90;99.90;;;;;;5027355;28;20646;-64
2021/01/27 01:04:57;;;;;;;18.20;14.10;;;3.90;99.90;;;;;;5012222;28;20654;-64
2021/01/27 01:07:46;;;;;;;17.63;14.30;;;3.90;99.90;;;;;;5028691;28;21271;-64
2021/01/27 01:10:34;;;;;;;16.40;14.40;;;3.80;99.90;;;;;;5013813;28;20673;-64
2021/01/27 01:13:25;;;;;;;19.53;15.37;;;3.80;99.90;;;;;;5027846;28;21430;-63
2021/01/27 01:16:09;;;;;;;17.93;14.53;;;3.80;99.90;;;;;;5029006;28;20641;-63
2021/01/27 01:18:54;;;;;;;17.40;14.17;;;3.80;99.90;;;;;;5023175;28;20737;-64
2021/01/27 01:21:39;;;;;;;19.63;15.10;;;3.70;99.90;;;;;;5014085;28;20654;-64
2021/01/27 01:24:23;;;;;;;17.43;14.50;;;3.80;99.90;;;;;;5012315;28;20631;-64
2021/01/27 01:27:08;;;;;;;17.00;14.43;;;3.70;99.90;;;;;;5014507;28;20713;-64
2021/01/27 01:29:52;;;;;;;19.20;16.07;;;3.70;99.90;;;;;;5028393;28;20603;-64
2021/01/27 01:32:37;;;;;;;15.63;14.03;;;3.70;99.90;;;;;;5027553;28;20646;-64
2021/01/27 01:35:21;;;;;;;16.93;14.90;;;3.70;99.90;;;;;;5029236;28;20654;-64
2021/01/27 01:38:10;;;;;;;17.00;15.20;;;3.70;99.90;;;;;;5014157;28;20615;-65
2021/01/27 01:40:59;;;;;;;17.80;14.70;;;3.70;99.90;;;;;;5023296;28;20964;-63
2021/01/27 01:43:44;;;;;;;17.10;14.87;;;3.80;99.90;;;;;;5024107;28;21271;-64
2021/01/27 01:46:29;;;;;;;17.70;14.70;;;3.90;99.90;;;;;;5020681;28;20630;-64
2021/01/27 01:49:14;;;;;;;18.60;14.63;;;3.90;99.90;;;;;;5028095;28;21949;-64
2021/01/27 01:52:01;;;;;;;16.97;15.27;;;3.90;99.90;;;;;;5020953;28;20654;-64
2021/01/27 01:54:56;;;;;;;17.20;13.63;;;4.00;99.90;;;;;;5026318;28;20660;-62
2021/01/27 01:57:42;;;;;;;17.60;14.70;;;4.00;99.90;;;;;;5028649;28;20666;-63
2021/01/27 02:00:28;;;;;;;15.53;13.60;;;4.00;99.90;;;;;;5024558;28;20622;-69
2021/01/27 02:03:15;;;;;;;21.07;14.67;;;4.10;99.90;;;;;;5025076;28;20591;-63
2021/01/27 02:06:02;;;;;;;16.00;14.20;;;4.20;99.90;;;;;;5028508;28;21276;-64
2021/01/27 02:08:51;;;;;;;17.77;13.97;;;4.10;99.90;;;;;;5012161;28;20610;-63
2021/01/27 02:12:17;;;;;;;19.10;14.77;;;4.10;99.90;;;;;;5027934;28;20642;-64
2021/01/27 02:15:14;;;;;;;15.40;13.50;;;4.20;99.90;;;;;;5022777;28;20634;-66
2021/01/27 02:18:14;;;;;;;16.23;14.53;;;4.20;99.90;;;;;;5028608;28;20661;-64
2021/01/27 02:21:14;;;;;;;17.90;15.10;;;4.20;99.90;;;;;;5032877;28;20591;-64
2021/01/27 02:24:27;;;;;;;17.33;15.40;;;4.20;99.90;;;;;;5007761;28;21251;-64
2021/01/27 02:27:43;;;;;;;20.00;16.27;;;4.20;99.90;;;;;;5026757;28;20618;-64
2021/01/27 02:30:53;;;;;;;16.27;14.53;;;4.20;99.90;;;;;;5014520;28;21141;-64
2021/01/27 02:34:06;;;;;;;18.03;14.90;;;4.10;99.90;;;;;;5026202;28;20649;-62
2021/01/27 02:37:19;;;;;;;15.93;14.10;;;4.20;99.90;;;;;;5020408;28;21197;-64
2021/01/27 02:40:19;;;;;;;21.57;16.50;;;4.10;99.90;;;;;;5010189;28;20752;-63
2021/01/27 02:43:13;;;;;;;17.67;14.83;;;4.20;99.90;;;;;;5022484;28;20638;-64
2021/01/27 02:46:06;;;;;;;18.50;15.07;;;4.20;99.90;;;;;;5025902;28;20782;-63
2021/01/27 02:49:32;;;;;;;19.63;15.90;;;4.10;99.90;;;;;;5027489;28;20658;-63
2021/01/27 02:52:25;;;;;;;21.20;15.47;;;4.00;99.90;;;;;;4985675;28;21014;-64
2021/01/27 02:55:23;;;;;;;19.30;15.80;;;4.10;99.90;;;;;;5025286;28;21291;-63
2021/01/27 02:58:21;;;;;;;16.50;14.13;;;4.10;99.90;;;;;;5021347;28;20603;-64
2021/01/27 03:01:12;;;;;;;19.20;15.87;;;3.90;99.90;;;;;;5027400;28;20643;-63
2021/01/27 03:04:06;;;;;;;19.03;15.70;;;4.00;99.90;;;;;;5031793;28;20631;-63
2021/01/27 03:06:52;;;;;;;17.70;14.53;;;4.00;99.90;;;;;;5024599;28;20575;-64
2021/01/27 03:09:46;;;;;;;19.37;15.23;;;4.00;99.90;;;;;;5030368;28;20627;-64
2021/01/27 03:12:31;;;;;;;19.60;16.33;;;4.10;99.90;;;;;;5029698;28;20681;-63
2021/01/27 03:15:16;;;;;;;21.17;16.20;;;4.10;99.90;;;;;;5029853;28;20661;-64
2021/01/27 03:18:04;;;;;;;18.20;15.53;;;4.00;99.90;;;;;;5029820;28;20642;-64
2021/01/27 03:20:56;;;;;;;17.97;15.90;;;4.00;99.90;;;;;;5018781;28;20718;-64
2021/01/27 03:23:50;;;;;;;17.97;15.20;;;4.10;99.90;;;;;;5024385;28;20649;-64
2021/01/27 03:27:09;;;;;;;19.13;15.40;;;4.10;99.90;;;;;;5027379;28;20669;-63
2021/01/27 03:29:59;;;;;;;22.63;16.50;;;4.10;99.90;;;;;;5023642;28;20610;-64
2021/01/27 03:32:54;;;;;;;20.03;16.57;;;4.10;99.90;;;;;;5025519;28;21073;-64
2021/01/27 03:35:42;;;;;;;19.87;16.27;;;4.00;99.90;;;;;;5021978;28;20739;-64
2021/01/27 03:38:29;;;;;;;21.90;17.07;;;4.00;99.90;;;;;;5026065;28;21020;-63
2021/01/27 03:41:29;;;;;;;19.10;16.60;;;3.90;99.90;;;;;;5028388;28;20626;-63
2021/01/27 03:44:19;;;;;;;20.60;15.70;;;3.90;99.90;;;;;;5024836;28;20744;-64
2021/01/27 03:47:08;;;;;;;21.33;17.20;;;4.00;99.90;;;;;;5024549;28;20620;-63
2021/01/27 03:50:14;;;;;;;20.93;18.20;;;4.00;99.90;;;;;;5017480;28;21107;-64
2021/01/27 03:53:03;;;;;;;23.20;18.53;;;4.00;99.90;;;;;;5028354;28;21068;-62
2021/01/27 03:56:00;;;;;;;25.70;19.47;;;4.00;99.90;;;;;;5010474;28;20713;-64
2021/01/27 03:58:47;;;;;;;23.90;18.93;;;4.00;99.90;;;;;;5012209;28;21192;-64
2021/01/27 04:01:31;;;;;;;24.50;19.50;;;4.00;99.90;;;;;;5026808;28;20731;-63
2021/01/27 04:04:16;;;;;;;22.00;18.60;;;4.00;99.90;;;;;;5027143;28;20751;-64
2021/01/27 04:07:01;;;;;;;25.40;20.60;;;4.00;99.90;;;;;;5032098;28;20581;-64
2021/01/27 04:09:45;;;;;;;24.33;19.33;;;4.10;99.90;;;;;;5016031;28;20590;-64
2021/01/27 04:12:29;;;;;;;25.37;21.00;;;4.10;99.90;;;;;;5031542;28;20653;-64
2021/01/27 04:15:14;;;;;;;27.73;20.80;;;4.10;99.90;;;;;;5029566;28;20773;-64
2021/01/27 04:17:59;;;;;;;26.40;21.57;;;4.10;99.90;;;;;;5011226;28;20646;-64
2021/01/27 04:20:44;;;;;;;24.50;20.63;;;4.20;99.90;;;;;;5029772;28;20677;-63
2021/01/27 04:23:28;;;;;;;24.67;19.97;;;4.10;99.90;;;;;;5027679;28;20610;-64
2021/01/27 04:26:13;;;;;;;28.23;20.13;;;4.10;99.90;;;;;;5028309;28;20630;-64
2021/01/27 04:28:57;;;;;;;28.23;21.50;;;4.10;99.90;;;;;;5026634;28;21170;-64
2021/01/27 04:31:42;;;;;;;28.43;21.10;;;4.10;99.90;;;;;;5015340;28;20637;-64
2021/01/27 04:34:26;;;;;;;28.50;22.30;;;4.20;99.90;;;;;;5027124;28;20704;-64
2021/01/27 04:37:11;;;;;;;26.50;22.13;;;4.20;99.90;;;;;;5027660;28;20649;-64
2021/01/27 04:39:55;;;;;;;27.80;21.80;;;4.20;99.90;;;;;;5029803;28;20659;-65
2021/01/27 04:42:41;;;;;;;26.53;21.37;;;4.20;99.90;;;;;;5028555;28;20697;-66
2021/01/27 04:45:26;;;;;;;26.67;20.90;;;4.10;99.90;;;;;;5021420;28;20790;-64
2021/01/27 04:48:24;;;;;;;26.30;21.37;;;4.20;99.90;;;;;;5028368;28;20619;-63
2021/01/27 04:51:14;;;;;;;27.93;21.80;;;4.10;99.90;;;;;;5028627;28;21220;-64
2021/01/27 04:54:26;;;;;;;28.13;22.30;;;4.10;99.90;;;;;;5022319;28;21400;-64
2021/01/27 04:57:34;;;;;;;30.97;22.17;;;4.10;99.90;;;;;;5030196;28;20722;-64
2021/01/27 05:00:48;;;;;;;32.50;23.20;;;4.10;99.90;;;;;;5029839;28;20619;-63
2021/01/27 05:04:02;;;;;;;30.47;22.67;;;4.10;99.90;;;;;;5027624;28;20618;-64
2021/01/27 05:06:54;;;;;;;27.23;22.73;;;4.20;99.90;;;;;;5030131;28;20599;-64
2021/01/27 05:09:47;;;;;;;29.40;22.90;;;4.20;99.90;;;;;;5030654;28;20593;-64
2021/01/27 05:12:48;;;;;;;34.23;22.87;;;4.20;99.90;;;;;;5012970;28;20665;-64
2021/01/27 05:15:32;;;;;;;31.93;23.60;;;4.20;99.90;;;;;;5026668;28;20690;-64
2021/01/27 05:18:17;;;;;;;32.33;22.37;;;4.20;99.90;;;;;;5032149;28;20705;-63
2021/01/27 05:21:03;;;;;;;30.43;23.10;;;4.20;99.90;;;;;;5034685;28;20661;-63
2021/01/27 05:23:47;;;;;;;33.93;25.40;;;4.20;99.90;;;;;;5012569;28;20639;-64
2021/01/27 05:26:56;;;;;;;34.40;23.83;;;4.20;99.90;;;;;;5029440;28;20630;-64
2021/01/27 05:29:44;;;;;;;33.83;25.17;;;4.10;99.90;;;;;;5014764;28;20618;-64
2021/01/27 05:32:50;;;;;;;33.23;24.40;;;4.10;99.90;;;;;;5030556;28;20646;-63
2021/01/27 05:35:40;;;;;;;31.17;23.83;;;4.10;99.90;;;;;;5012106;28;20643;-64
2021/01/27 05:38:30;;;;;;;35.43;26.63;;;4.10;99.90;;;;;;5029271;28;20634;-63
2021/01/27 05:41:27;;;;;;;27.80;22.93;;;4.00;99.90;;;;;;5026363;28;21064;-64
2021/01/27 05:44:15;;;;;;;36.90;25.40;;;4.00;99.90;;;;;;5027305;28;20639;-64
2021/01/27 05:47:34;;;;;;;35.07;25.30;;;4.00;99.90;;;;;;5029586;28;20614;-64
2021/01/27 05:50:23;;;;;;;34.80;25.60;;;4.10;99.90;;;;;;5020668;28;20627;-64
2021/01/27 05:53:13;;;;;;;31.43;23.57;;;4.10;99.90;;;;;;5013785;28;20750;-64
2021/01/27 05:56:02;;;;;;;38.87;26.20;;;4.10;99.90;;;;;;5006625;28;20651;-64
2021/01/27 05:59:07;;;;;;;32.93;25.87;;;4.20;99.90;;;;;;5029570;28;20607;-64
2021/01/27 06:01:59;;;;;;;35.93;25.50;;;4.20;99.90;;;;;;5029069;28;20678;-63
2021/01/27 06:04:57;;;;;;;35.27;26.27;;;4.20;99.90;;;;;;4997096;28;20638;-64
2021/01/27 06:07:42;;;;;;;36.37;26.20;;;4.20;99.90;;;;;;5028094;28;20828;-64
2021/01/27 06:10:27;;;;;;;38.00;28.07;;;4.30;99.90;;;;;;5029178;28;20962;-64
2021/01/27 06:13:30;;;;;;;34.70;26.60;;;4.30;99.90;;;;;;5026978;28;20762;-63
2021/01/27 06:16:21;;;;;;;34.77;25.97;;;4.30;99.90;;;;;;5012068;28;20701;-63
2021/01/27 06:19:10;;;;;;;32.50;25.67;;;4.20;99.90;;;;;;5028904;28;20974;-64
2021/01/27 06:22:21;;;;;;;33.10;24.70;;;4.20;99.90;;;;;;5020544;28;20666;-64
2021/01/27 06:25:23;;;;;;;35.10;26.17;;;4.20;99.90;;;;;;5020177;28;20772;-64
2021/01/27 06:28:20;;;;;;;32.37;26.40;;;4.20;99.90;;;;;;5028571;28;20618;-64
2021/01/27 06:31:42;;;;;;;33.70;25.80;;;4.20;99.90;;;;;;5025919;28;20642;-64
2021/01/27 06:35:04;;;;;;;35.80;27.27;;;4.20;99.90;;;;;;5024854;28;20702;-63
2021/01/27 06:38:07;;;;;;;32.60;24.77;;;4.30;99.90;;;;;;5019198;28;20674;-63
2021/01/27 06:41:10;;;;;;;36.70;26.67;;;4.30;99.90;;;;;;5025954;28;20618;-63
2021/01/27 06:44:22;;;;;;;33.83;25.00;;;4.30;99.90;;;;;;5018301;28;21243;-63
2021/01/27 06:47:23;;;;;;;42.37;26.67;;;4.20;99.90;;;;;;5022045;28;20713;-63
2021/01/27 06:50:13;;;;;;;32.73;24.63;;;4.30;99.90;;;;;;5024036;28;20601;-63
2021/01/27 06:53:13;;;;;;;34.47;25.53;;;4.30;99.90;;;;;;5018270;28;20688;-63
2021/01/27 06:56:03;;;;;;;35.03;25.30;;;4.20;99.90;;;;;;5024868;28;21003;-64
2021/01/27 07:01:58;;;;;;;34.53;26.93;;;4.30;99.90;;;;;;5144121;23;20682;-68
2021/01/27 07:05:06;;;;;;;31.90;25.13;;;4.30;99.90;;;;;;4995679;28;21615;-69
2021/01/27 07:08:05;;;;;;;34.23;25.27;;;4.40;99.90;;;;;;5018401;28;20614;-66
2021/01/27 07:11:12;;;;;;;32.93;25.47;;;4.30;99.90;;;;;;5005090;28;20972;-69
2021/01/27 07:14:19;;;;;;;34.37;24.33;;;4.30;99.90;;;;;;5003698;28;20635;-66
2021/01/27 07:17:28;;;;;;;34.20;26.23;;;4.20;99.90;;;;;;5025301;28;20634;-67
2021/01/27 07:20:23;;;;;;;32.53;24.30;;;4.20;99.90;;;;;;4994981;28;20705;-67
2021/01/27 07:23:27;;;;;;;36.50;26.83;;;4.20;99.90;;;;;;5019561;28;20650;-67
2021/01/27 07:26:28;;;;;;;34.67;24.97;;;4.20;99.90;;;;;;5013510;28;20678;-66
2021/01/27 07:29:21;;;;;;;30.87;24.53;;;4.20;99.90;;;;;;5010907;28;20586;-66
2021/01/27 07:32:15;;;;;;;33.07;24.80;;;4.00;99.90;;;;;;5014449;28;20649;-66
2021/01/27 07:35:07;;;;;;;32.60;24.73;;;4.20;99.90;;;;;;5001731;28;20650;-66
2021/01/27 07:38:03;;;;;;;35.13;25.70;;;4.10;99.90;;;;;;5014465;28;20694;-67
2021/01/27 07:41:05;;;;;;;32.27;23.60;;;4.20;99.90;;;;;;4995984;28;20614;-68
2021/01/27 07:44:03;;;;;;;32.73;24.20;;;4.30;99.90;;;;;;5023988;28;20637;-67
2021/01/27 07:47:29;;;;;;;34.00;24.10;;;4.30;99.90;;;;;;5028966;28;20567;-67
2021/01/27 07:50:19;;;;;;;36.20;23.87;;;4.30;99.90;;;;;;5014134;28;21141;-65
2021/01/27 07:53:12;;;;;;;28.13;22.60;;;4.30;99.90;;;;;;5008507;28;20749;-66
2021/01/27 07:56:19;;;;;;;29.87;22.90;;;4.30;99.90;;;;;;5025392;28;20635;-67
2021/01/27 07:59:19;;;;;;;32.53;23.20;;;4.30;99.90;;;;;;5021619;28;31065;-66
2021/01/27 08:02:31;;;;;;;31.10;23.80;;;4.20;99.90;;;;;;5018967;28;20779;-67
2021/01/27 08:05:16;;;;;;;29.70;23.60;;;4.20;99.90;;;;;;5008890;28;20643;-66
2021/01/27 08:08:08;;;;;;;29.03;22.60;;;4.30;99.90;;;;;;5024292;28;21205;-69
2021/01/27 08:10:56;;;;;;;28.13;22.67;;;4.30;99.90;;;;;;5008134;28;21224;-66
2021/01/27 08:13:43;;;;;;;30.67;24.60;;;4.30;99.90;;;;;;5011986;28;20654;-66
2021/01/27 08:16:30;;;;;;;31.70;22.53;;;4.30;99.90;;;;;;5024762;28;20705;-66
2021/01/27 08:19:15;;;;;;;29.97;22.60;;;4.30;99.90;;;;;;5029285;28;20576;-65
2021/01/27 08:22:02;;;;;;;27.50;22.33;;;4.20;99.90;;;;;;5025186;28;20642;-68
2021/01/27 08:24:49;;;;;;;29.77;23.43;;;4.30;99.90;;;;;;5033927;28;20723;-68
2021/01/27 08:27:34;;;;;;;30.77;23.73;;;4.20;99.90;;;;;;5028622;28;20590;-64
2021/01/27 08:30:24;;;;;;;27.60;22.77;;;4.30;99.90;;;;;;5029875;28;20602;-65
2021/01/27 08:33:32;;;;;;;30.20;24.17;;;4.20;99.90;;;;;;5010307;28;20657;-65
2021/01/27 08:36:28;;;;;;;28.00;22.70;;;4.10;99.90;;;;;;5019326;28;20754;-68
2021/01/27 08:39:23;;;;;;;30.37;23.30;;;4.10;99.90;;;;;;5028132;28;20653;-68
2021/01/27 08:42:25;;;;;;;27.97;23.00;;;4.10;99.90;;;;;;5011838;28;21252;-66
2021/01/27 08:45:22;;;;;;;29.80;22.60;;;4.20;99.90;;;;;;5035042;28;20712;-68
2021/01/27 08:48:07;;;;;;;26.43;22.23;;;4.20;99.90;;;;;;5032413;28;20602;-65
2021/01/27 08:50:56;;;;;;;27.33;22.60;;;4.20;99.90;;;;;;5029825;28;20975;-66
2021/01/27 08:53:56;;;;;;;27.60;22.40;;;4.10;99.90;;;;;;5028455;28;21208;-69
2021/01/27 08:57:19;;;;;;;24.97;20.87;;;4.20;99.90;;;;;;5009758;28;21208;-67
2021/01/27 09:00:21;;;;;;;26.30;22.50;;;4.30;99.90;;;;;;5010308;28;20618;-69
2021/01/27 09:03:05;;;;;;;27.13;20.90;;;4.30;99.90;;;;;;5021760;28;21044;-69
2021/01/27 09:05:50;;;;;;;25.27;20.77;;;4.30;99.90;;;;;;5025076;28;21020;-66
2021/01/27 09:08:37;;;;;;;25.37;21.27;;;4.30;99.90;;;;;;5005231;28;20613;-66
2021/01/27 09:11:25;;;;;;;26.97;21.60;;;4.30;99.90;;;;;;5008908;28;21017;-66
2021/01/27 09:14:15;;;;;;;25.27;20.67;;;4.40;99.90;;;;;;5023046;28;20785;-66
2021/01/27 09:17:04;;;;;;;25.30;21.23;;;4.40;99.90;;;;;;5020435;28;21222;-66
2021/01/27 09:19:54;;;;;;;24.90;20.43;;;4.40;99.90;;;;;;5004545;28;21019;-66
2021/01/27 09:22:39;;;;;;;23.07;19.23;;;4.50;99.90;;;;;;5016950;28;20685;-66
2021/01/27 09:25:24;;;;;;;25.90;20.13;;;4.50;99.90;;;;;;5022895;28;20659;-66
2021/01/27 09:28:10;;;;;;;22.87;18.43;;;4.50;99.90;;;;;;5019810;28;20603;-69
2021/01/27 09:30:55;;;;;;;21.07;17.50;;;4.40;99.90;;;;;;5007280;28;20977;-66
2021/01/27 09:33:39;;;;;;;21.07;17.83;;;4.50;99.90;;;;;;5032792;28;20654;-63
2021/01/27 09:36:27;;;;;;;20.10;16.93;;;4.50;99.90;;;;;;5021788;28;20599;-63
2021/01/27 09:39:12;;;;;;;18.03;16.17;;;4.60;99.90;;;;;;5022580;28;21189;-62
2021/01/27 09:42:01;;;;;;;20.50;16.33;;;4.60;99.90;;;;;;5022943;28;20654;-64
2021/01/27 09:45:05;;;;;;;17.63;14.33;;;4.50;99.90;;;;;;5017699;28;20662;-64
2021/01/27 09:47:50;;;;;;;18.30;15.73;;;4.60;99.90;;;;;;5018186;28;20630;-64
2021/01/27 09:50:39;;;;;;;17.57;14.60;;;4.60;99.90;;;;;;5002325;28;20610;-64
2021/01/27 09:53:29;;;;;;;16.00;14.23;;;4.60;99.90;;;;;;5007389;28;20973;-64
2021/01/27 09:56:17;;;;;;;13.83;12.10;;;4.70;99.90;;;;;;5022350;28;20591;-64
2021/01/27 09:59:03;;;;;;;17.33;12.40;;;4.70;99.90;;;;;;5021122;28;20677;-64
2021/01/27 10:01:48;;;;;;;19.63;12.90;;;4.80;99.90;;;;;;5020560;28;21232;-62
2021/01/27 10:04:38;;;;;;;15.53;12.10;;;4.90;99.90;;;;;;5005095;28;20655;-63
2021/01/27 10:07:31;;;;;;;14.50;12.63;;;4.90;99.90;;;;;;5024635;28;20627;-64
2021/01/27 10:10:19;;;;;;;14.63;12.20;;;5.10;99.90;;;;;;5020920;28;20675;-64
2021/01/27 10:13:03;;;;;;;14.23;12.43;;;5.10;99.90;;;;;;5001943;28;21252;-62
2021/01/27 10:15:48;;;;;;;12.43;10.60;;;5.20;99.90;;;;;;5018701;28;20650;-64
2021/01/27 10:18:33;;;;;;;13.30;11.37;;;5.30;99.90;;;;;;5022064;28;20683;-62
2021/01/27 10:21:18;;;;;;;14.17;11.50;;;5.40;99.90;;;;;;5020788;28;20646;-62
2021/01/27 10:24:06;;;;;;;13.27;11.87;;;5.50;99.90;;;;;;5019688;28;20635;-66
2021/01/27 10:27:03;;;;;;;13.10;10.80;;;5.60;99.90;;;;;;5019175;28;21038;-63
2021/01/27 10:29:51;;;;;;;12.73;10.20;;;5.60;99.90;;;;;;5024632;28;20591;-64
2021/01/27 10:32:39;;;;;;;11.30;10.20;;;5.60;99.90;;;;;;5001301;28;21240;-64
2021/01/27 10:35:24;;;;;;;13.53;9.77;;;5.60;99.90;;;;;;5000830;28;20686;-63
2021/01/27 10:38:12;;;;;;;11.97;10.33;;;5.70;99.90;;;;;;5017168;28;21445;-64
2021/01/27 10:41:09;;;;;;;12.50;10.57;;;5.70;99.90;;;;;;5014957;28;20591;-66
2021/01/27 10:43:54;;;;;;;12.70;10.17;;;5.80;99.90;;;;;;5019951;28;20650;-66
2021/01/27 10:46:39;;;;;;;10.57;9.23;;;5.90;99.90;;;;;;5001993;28;20943;-63
2021/01/27 10:49:24;;;;;;;11.83;10.60;;;6.10;99.90;;;;;;5011802;28;20708;-63
2021/01/27 10:52:17;;;;;;;11.03;9.70;;;6.10;99.90;;;;;;5027200;28;20658;-64
2021/01/27 10:55:06;;;;;;;11.07;9.53;;;6.20;99.90;;;;;;5020932;28;21256;-64
2021/01/27 10:58:04;;;;;;;10.80;9.70;;;6.30;99.90;;;;;;5029657;28;20681;-64
2021/01/27 11:00:50;;;;;;;12.30;10.00;;;6.40;99.90;;;;;;5009209;28;21177;-62
2021/01/27 11:03:35;;;;;;;15.00;10.77;;;6.40;99.90;;;;;;5017584;28;21231;-64
2021/01/27 11:06:19;;;;;;;12.77;11.27;;;6.50;99.90;;;;;;4998444;28;20583;-64
2021/01/27 11:09:04;;;;;;;12.00;10.40;;;6.40;99.90;;;;;;5008727;28;21216;-64
2021/01/27 11:11:48;;;;;;;12.83;9.80;;;6.50;99.90;;;;;;4998398;28;21089;-65
2021/01/27 11:14:33;;;;;;;10.93;9.20;;;6.50;99.90;;;;;;5014590;28;20735;-64
2021/01/27 11:17:18;;;;;;;12.53;10.63;;;6.60;99.90;;;;;;5003887;28;20659;-65
2021/01/27 11:20:06;;;;;;;10.73;9.63;;;6.40;99.90;;;;;;5010775;28;20660;-62
2021/01/27 11:22:51;;;;;;;10.90;9.30;;;6.40;99.90;;;;;;5017912;28;20899;-69
2021/01/27 11:25:36;;;;;;;11.33;9.13;;;6.30;99.90;;;;;;5020892;28;21291;-66
2021/01/27 11:28:22;;;;;;;9.70;8.70;;;6.30;99.90;;;;;;5023730;28;21193;-66
2021/01/27 11:31:07;;;;;;;10.90;8.73;;;6.20;99.90;;;;;;5026916;28;20658;-68
2021/01/27 11:33:51;;;;;;;9.93;8.83;;;6.10;99.90;;;;;;5026076;28;21244;-67
2021/01/27 11:36:36;;;;;;;10.40;9.30;;;6.10;99.90;;;;;;5027876;28;20690;-63
2021/01/27 11:39:21;;;;;;;11.33;8.70;;;6.10;99.90;;;;;;5030524;28;21200;-65
2021/01/27 11:42:05;;;;;;;11.37;10.17;;;6.10;99.90;;;;;;5020166;28;20778;-64
2021/01/27 11:44:50;;;;;;;11.37;9.57;;;6.20;99.90;;;;;;5024221;28;21095;-64
2021/01/27 11:47:35;;;;;;;11.47;9.63;;;6.10;99.90;;;;;;5014541;28;20734;-64
2021/01/27 11:50:25;;;;;;;10.37;9.00;;;6.20;99.90;;;;;;5020758;28;20700;-62
2021/01/27 11:53:10;;;;;;;10.80;8.47;;;6.30;99.90;;;;;;5020333;28;20753;-64
2021/01/27 11:55:55;;;;;;;9.63;8.40;;;6.30;99.90;;;;;;5018320;28;20793;-63
2021/01/27 11:58:40;;;;;;;9.60;8.27;;;6.20;99.90;;;;;;5019650;28;20653;-64
2021/01/27 12:01:28;;;;;;;10.33;8.07;;;6.20;99.90;;;;;;5018044;28;20633;-66
2021/01/27 12:04:13;;;;;;;10.47;8.60;;;6.10;99.90;;;;;;5018030;28;20657;-67
2021/01/27 12:06:57;;;;;;;9.73;8.33;;;6.20;99.90;;;;;;5004143;28;20622;-66
2021/01/27 12:09:42;;;;;;;10.30;8.13;;;6.10;99.90;;;;;;5014811;28;20623;-68
2021/01/27 12:12:27;;;;;;;8.87;7.83;;;6.10;99.90;;;;;;5004823;28;20764;-67
2021/01/27 12:15:12;;;;;;;9.80;7.70;;;6.20;99.90;;;;;;5001889;28;20650;-67
2021/01/27 12:17:56;;;;;;;8.43;7.63;;;6.20;99.90;;;;;;5015943;28;21116;-69
2021/01/27 12:20:42;;;;;;;10.13;7.23;;;6.20;99.90;;;;;;5020470;28;20745;-68
2021/01/27 12:23:27;;;;;;;8.70;7.10;;;6.30;99.90;;;;;;5004908;28;20690;-66
2021/01/27 12:26:15;;;;;;;8.30;6.47;;;6.20;99.90;;;;;;5017438;28;20755;-66
2021/01/27 12:29:00;;;;;;;7.33;6.40;;;6.20;99.90;;;;;;5018831;28;20633;-69
2021/01/27 12:31:45;;;;;;;8.80;6.70;;;6.10;99.90;;;;;;5017871;28;20688;-66
2021/01/27 12:34:29;;;;;;;6.87;6.20;;;6.00;99.90;;;;;;5017582;28;21272;-64
2021/01/27 12:37:14;;;;;;;7.57;6.80;;;6.10;99.90;;;;;;4995815;28;21001;-63
2021/01/27 12:39:59;;;;;;;6.80;6.20;;;6.10;99.90;;;;;;5010258;28;20645;-64
2021/01/27 12:42:44;;;;;;;8.27;6.60;;;6.10;99.90;;;;;;5001839;28;20756;-64
2021/01/27 12:45:29;;;;;;;8.80;6.40;;;6.00;99.90;;;;;;5016895;28;20646;-65
2021/01/27 12:48:14;;;;;;;7.57;6.77;;;6.10;99.90;;;;;;5016449;28;21245;-64
2021/01/27 12:50:59;;;;;;;8.07;6.40;;;6.10;99.90;;;;;;5014263;28;20761;-65
2021/01/27 12:53:45;;;;;;;7.10;6.40;;;6.10;99.90;;;;;;5004943;28;20642;-64
2021/01/27 12:56:29;;;;;;;6.63;5.90;;;6.00;99.90;;;;;;5007364;28;20629;-64
2021/01/27 12:59:14;;;;;;;7.13;5.70;;;6.00;99.90;;;;;;5005427;28;20688;-64
2021/01/27 13:01:58;;;;;;;8.10;6.37;;;5.90;99.90;;;;;;5008050;28;21366;-64
2021/01/27 13:04:43;;;;;;;6.43;5.43;;;5.80;99.90;;;;;;5007737;28;20646;-64
2021/01/27 13:07:30;;;;;;;6.80;6.17;;;5.80;99.90;;;;;;4998029;28;21061;-64
2021/01/27 13:10:16;;;;;;;6.73;6.03;;;5.80;99.90;;;;;;5013542;28;21208;-64
2021/01/27 13:13:00;;;;;;;6.77;6.00;;;5.90;99.90;;;;;;5016407;28;20710;-64
2021/01/27 13:15:48;;;;;;;7.43;6.73;;;5.80;99.90;;;;;;5017470;28;20753;-65
2021/01/27 13:18:33;;;;;;;7.47;6.30;;;5.90;99.90;;;;;;5020621;28;20783;-63
2021/01/27 13:21:17;;;;;;;6.50;5.90;;;5.90;99.90;;;;;;5010787;28;20677;-63
2021/01/27 13:24:02;;;;;;;7.40;6.00;;;5.90;99.90;;;;;;5019641;28;21402;-64
2021/01/27 13:26:47;;;;;;;7.10;6.10;;;5.90;99.90;;;;;;5010856;28;20587;-64
2021/01/27 13:29:34;;;;;;;6.73;6.10;;;5.80;99.90;;;;;;5013879;28;20615;-64
2021/01/27 13:32:19;;;;;;;6.07;5.57;;;5.80;99.90;;;;;;5018652;28;20638;-64
2021/01/27 13:35:04;;;;;;;6.30;5.70;;;5.70;99.90;;;;;;5015932;28;20725;-65
2021/01/27 13:37:50;;;;;;;6.30;5.70;;;5.70;99.90;;;;;;5000000;28;20642;-65
2021/01/27 13:40:37;;;;;;;6.57;5.97;;;5.90;99.90;;;;;;5012648;28;20595;-61
2021/01/27 13:43:21;;;;;;;7.47;6.73;;;5.70;99.90;;;;;;5024778;28;20619;-64
2021/01/27 13:46:06;;;;;;;6.83;6.10;;;5.70;99.90;;;;;;5014848;28;20693;-63
2021/01/27 13:48:51;;;;;;;6.47;5.87;;;5.70;99.90;;;;;;5009572;28;23051;-63
2021/01/27 13:51:35;;;;;;;5.80;5.30;;;5.70;99.90;;;;;;5007166;28;21236;-64
2021/01/27 13:54:20;;;;;;;7.00;6.07;;;5.80;99.90;;;;;;5015042;28;21016;-65
2021/01/27 13:57:04;;;;;;;6.73;5.80;;;5.70;99.90;;;;;;5007515;28;20609;-65
2021/01/27 13:59:49;;;;;;;6.77;6.17;;;5.80;99.90;;;;;;5008566;28;20651;-65
2021/01/27 14:02:34;;;;;;;7.70;7.00;;;5.80;99.90;;;;;;5000855;28;20704;-65
2021/01/27 14:05:22;;;;;;;6.57;5.97;;;5.80;99.90;;;;;;4988236;28;26230;-63
2021/01/27 14:08:07;;;;;;;6.87;6.17;;;5.90;99.90;;;;;;5012583;28;20598;-65
2021/01/27 14:10:51;;;;;;;7.40;6.43;;;5.90;99.90;;;;;;5012241;28;21325;-65
2021/01/27 14:13:36;;;;;;;6.73;6.03;;;5.90;99.90;;;;;;5013566;28;21279;-65
2021/01/27 14:16:21;;;;;;;7.00;6.30;;;5.90;99.90;;;;;;5016519;28;20625;-63
2021/01/27 14:19:05;;;;;;;7.20;6.60;;;5.90;99.90;;;;;;5011263;28;20654;-67
2021/01/27 14:21:50;;;;;;;7.97;7.20;;;5.90;99.90;;;;;;5008678;28;20674;-65
2021/01/27 14:24:35;;;;;;;7.27;6.50;;;5.80;99.90;;;;;;5006604;28;20688;-64
2021/01/27 14:27:20;;;;;;;7.67;6.97;;;5.90;99.90;;;;;;5012239;28;21056;-65
2021/01/27 14:30:07;;;;;;;8.60;7.27;;;5.90;99.90;;;;;;5014407;28;20663;-66
2021/01/27 14:32:54;;;;;;;8.30;7.50;;;5.90;99.90;;;;;;5011150;28;20646;-63
2021/01/27 14:35:39;;;;;;;7.80;7.00;;;5.90;99.90;;;;;;5020930;28;21176;-66
2021/01/27 14:38:23;;;;;;;7.17;6.53;;;5.80;99.90;;;;;;5013090;28;20750;-65
2021/01/27 14:41:08;;;;;;;8.60;7.17;;;5.80;99.90;;;;;;5028774;28;20622;-65
2021/01/27 14:43:52;;;;;;;7.90;7.07;;;5.80;99.90;;;;;;5020655;28;20729;-63